新千歳空港の過去48時間の天気

新千歳空港 (Sapporo/New Chitose)

現在時刻: 11/24 00:13 JST (11/23 15:13 UTC) 以下の時間は現地時間です。

過去48時間のMETAR気象情報
時間 風向 風速(m/s) 視程 気温(℃) 湿度(%) 気圧(hPa) 天気現象
24 00:00 西北西 3 10km以上 -2 80 1005
23 23:30 北西 2 10km以上 -2 80 1005
23 23:00 西 3 10km以上 -1 74 1006
23 22:30 西 4 10km以上 -1 86 1006
23 22:00 西 4 10km以上 -1 86 1006
23 21:30 西南西 2 10km以上 0 93 1005
23 21:00 2 10km以上 0 93 1005
23 20:30 3 10km以上 1 93 1005
23 20:00 3 10km以上 1 93 1005
23 19:30 4 10km以上 2 87 1004
23 19:00 4 10km以上 2 87 1005
23 18:30 5 10km以上 3 81 1005
23 18:00 北北西 3 10km以上 2 87 1004
23 17:30 北北西 3 10km以上 3 81 1004
23 17:00 5 10km以上 2 87 1004
23 16:30 5 10km以上 3 81 1003
23 16:00 5 10km以上 3 87 1003
23 15:30 5 10km以上 4 87 1003
23 15:00 8 10km以上 4 87 1003
23 14:30 5 10km以上 4 93 1003
23 14:00 5 10km以上 4 93 1002 弱いしゅう雨
23 13:30 7 10km以上 4 93 1002 弱いしゅう雨
23 13:00 6 10km以上 4 100 1003 弱いしゅう雨
23 12:30 6 10km以上 4 93 1003 弱いしゅう雨
23 12:00 7 10km以上 5 87 1003
23 11:30 8 10km以上 5 87 1003
23 11:00 7 10km以上 7 87 1003
23 10:48 6 10km以上 8 76 1003
23 10:30 不定 1 10km以上 7 87 1003
23 10:00 南東 2 10km以上 6 93 1004
23 09:30 不定 1 10km以上 5 100 1004
23 09:00 不定 2 10km以上 5 100 1004
23 08:30 西南西 2 10km以上 5 93 1004
23 08:00 南西 2 10km以上 4 100 1004
23 07:30 3 10km以上 4 100 1004 弱いしゅう雨
23 07:00 北東 2 10km以上 4 100 1004 弱いしゅう雨
23 06:30 北北西 4 10km以上 5 100 1004 弱いしゅう雨
23 06:00 西北西 2 10km以上 5 100 1004 弱いしゅう雨
23 05:30 西 3 10km以上 5 100 1004 弱いしゅう雨
23 05:00 南南西 4 10km以上 5 100 1003
23 04:30 4 10km以上 3 100 1003
23 04:00 4 10km以上 5 100 1004 弱いしゅう雨
23 03:30 4 10km以上 5 100 1004 弱いしゅう雨
23 03:00 6 10km以上 5 100 1004 弱いしゅう雨
23 02:30 6 10km以上 6 93 1005 弱いしゅう雨
23 02:00 5 10km以上 6 93 1005 弱いしゅう雨
23 01:30 南南西 4 10km以上 6 93 1005 弱いしゅう雨
23 01:00 3 10km以上 5 100 1006 弱いしゅう雨
23 00:30 3 10km以上 5 100 1006 弱いしゅう雨
23 00:00 南南西 4 10km以上 6 93 1006 弱いしゅう雨
22 23:30 5 10km以上 6 100 1007 弱いしゅう雨
22 23:00 南南西 3 10km以上 7 93 1007 弱いしゅう雨
22 22:30 3 10km以上 5 100 1008 弱いしゅう雨
22 22:00 南南西 4 10km以上 7 93 1008 弱いしゅう雨
22 21:30 7 10km以上 7 93 1009 弱いしゅう雨
22 21:00 4 10km以上 7 93 1009 弱いしゅう雨
22 20:30 5 10km以上 6 100 1010 弱いしゅう雨
22 20:00 南東 4 10km以上 6 100 1010 弱いしゅう雨
22 19:30 東南東 4 7,000m 5 100 1010 弱いしゅう雨
22 19:00 南南東 5 5,000m 6 93 1011 しゅう雨 もや
22 18:30 8 5,000m 6 93 1012 しゅう雨 もや
22 18:19 南南東 8 6,000m 6 93 1012 しゅう雨
22 18:00 南南東 9 8,000m 6 93 1011 弱いしゅう雨
22 17:30 9 6,000m 6 87 1011 弱いしゅう雨
22 17:00 8 5,000m 6 87 1012 しゅう雨 もや
22 16:35 11 5,000m 6 87 1012 弱いしゅう雨 もや
22 16:00 南南東 7 10km以上 7 87 1012 弱いしゅう雨
22 15:30 南南東 9 10km以上 7 81 1012 弱いしゅう雨
22 15:17 南南東 9 10km以上 7 81 1013 弱いしゅう雨
22 15:00 南南東 10 10km以上 7 81 1013 弱いしゅう雨
22 14:30 南南東 10 10km以上 7 76 1013 弱いしゅう雨
22 14:07 南南東 9 10km以上 7 70 1013 弱いしゅう雨
22 14:00 南南東 9 10km以上 7 70 1013 弱いしゅう雨
22 13:30 南南東 9 10km以上 7 70 1013 弱いしゅう雨
22 13:00 南南東 10 10km以上 7 70 1014 弱いしゅう雨
22 12:30 南南東 10 10km以上 7 66 1014 弱いしゅう雨
22 12:00 南南東 11 10km以上 6 70 1015 弱いしゅう雨
22 11:32 南南東 9 10km以上 6 76 1015 弱いしゅう雨
22 11:30 南南東 9 10km以上 6 76 1015 弱いしゅう雨
22 11:00 南東 6 10km以上 6 70 1016
22 10:30 南東 8 10km以上 4 75 1017 弱いしゅう雨
22 10:00 南東 7 10km以上 4 75 1018 弱いしゅう雨
22 09:30 南東 7 10km以上 4 70 1019 弱いしゅう雨
22 09:00 南南東 5 10km以上 3 70 1019
22 08:30 南東 3 10km以上 1 75 1019
22 08:00 南東 4 10km以上 0 74 1020
22 07:30 南南東 5 10km以上 -2 80 1020
22 07:00 3 10km以上 -4 86 1020
22 06:30 南南西 2 10km以上 -6 93 1021
22 06:00 1 10km以上 -6 93 1021
22 05:30 南南東 2 10km以上 -6 93 1021
22 05:00 南南西 2 10km以上 -4 80 1022
22 04:30 南南西 2 10km以上 -5 86 1022
22 04:00 南南西 2 10km以上 -2 74 1023
22 03:30 南南東 2 10km以上 -2 74 1023
22 03:00 2 10km以上 -3 80 1023
22 02:30 南東 2 10km以上 -3 80 1023
22 02:00 南東 3 10km以上 -3 74 1024
22 01:30 南東 2 10km以上 -3 74 1024
22 01:00 東南東 3 10km以上 -4 80 1023
22 00:30 不定 1 10km以上 -6 93 1024
RJCC 231500Z 29005KT 250V320 9999 FEW020 M02/M05 Q1005
RJCC 231430Z 31004KT 260V350 9999 FEW020 M02/M05 Q1005 RMK 1CU020 A2970
RJCC 231400Z 26006KT 9999 FEW020 M01/M05 Q1006 RMK 1CU020 A2971
RJCC 231330Z 27007KT 9999 FEW020 M01/M03 Q1006 RMK 1CU020 A2971
RJCC 231300Z 27007KT 9999 FEW020 M01/M03 Q1006 RMK 1CU020 A2971
RJCC 231230Z 25003KT 220V290 9999 FEW020 M00/M01 Q1005 RMK 1CU020 A2970
RJCC 231200Z 35003KT 9999 FEW020 SCT170 M00/M01 Q1005 RMK 1CU020 3AC170 A2968
RJCC 231130Z 01006KT 9999 FEW020 BKN150 01/M00 Q1005 RMK 1CU020 5AC150 A2968
RJCC 231100Z 35006KT 9999 FEW020 BKN150 01/M00 Q1005 RMK 1CU020 6AC150 A2968
RJCC 231030Z 35008KT 9999 FEW020 BKN130 02/00 Q1004 RMK 1CU020 7AC130 A2967
RJCC 231000Z 36008KT 9999 FEW020 BKN120 02/00 Q1005 RMK 1CU020 7AC120 A2968
RJCC 230930Z 35010KT 9999 FEW015 SCT045 BKN120 03/M00 Q1005 RMK 1ST015 4CU045 6AC120 A2968
RJCC 230900Z 34006KT 9999 FEW015 SCT040 BKN130 02/M00 Q1004 RMK 1ST015 4CU040 6AC130 A2967
RJCC 230830Z 34006KT 9999 FEW015 BKN040 BKN140 03/M00 Q1004 RMK 1ST015 5CU040 7AC140 A2967
RJCC 230800Z 35009KT 9999 FEW015 SCT120 BKN/// 02/M00 Q1004
RJCC 230730Z 36010KT 9999 FEW015 BKN/// 03/00 Q1003
RJCC 230700Z 01010KT 9999 FEW015 BKN/// 03/01 Q1003 RMK 1ST015 A2964
RJCC 230630Z 36010KT 9999 FEW010 SCT050 BKN/// 04/02 Q1003
RJCC 230600Z 36015KT 9999 FEW010 SCT050 BKN/// 04/02 Q1003 RMK 1ST010 3CU050 A2962
RJCC 230530Z 01009KT 9999 FEW010 BKN050 BKN/// 04/03 Q1003
RJCC 230500Z 36010KT 9999 -SHRA FEW010 SCT020 BKN040 04/03 Q1002 RMK 1ST010 3CU020 6CU040 A2961 MOD TURB OBS AT 0436Z 15NM E CHE 10000FT IN CMB DH8D
RJCC 230430Z 35013KT 9999 -SHRA FEW005 SCT010 BKN040 04/03 Q1002 RMK 1ST005 3ST010 7CU040 A2961
RJCC 230400Z 36012KT 9999 -SHRA FEW005 SCT010 BKN035 04/04 Q1003 RMK 1ST005 3ST010 6CU035 A2962
RJCC 230330Z 35012KT 9999 -SHRA FEW005 BKN010 BKN025 04/03 Q1003 RMK 1ST005 6ST010 7CU025 A2963
RJCC 230300Z 35013KT 9999 FEW005 SCT010 BKN025 05/03 Q1003 RMK 1ST005 3ST010 6CU025 A2964
RJCC 230230Z 35016KT 9999 FEW005 SCT010 BKN025 05/03 Q1003 WS R01R
RJCC 230200Z 35013KT 9999 FEW005 SCT010 BKN030 07/05 Q1003 RMK 1ST005 4ST010 6CU030 A2963
RJCC 230148Z 35012KT 9999 FEW005 SCT030 BKN/// 08/04 Q1003 RMK 1ST005 4CU030 A2962
RJCC 230130Z VRB02KT 9999 FEW005 BKN/// 07/05 Q1003
RJCC 230100Z 13003KT 090V200 9999 FEW010 BKN/// 06/05 Q1004 RMK 1ST010 A2965
RJCC 230030Z VRB01KT 9999 FEW010 SCT110 BKN/// 05/05 Q1004
RJCC 230000Z VRB04KT 9999 FEW010 SCT110 BKN/// 05/05 Q1004
RJCC 222330Z 25003KT 9999 FEW010 SCT110 BKN/// 05/04 Q1004
RJCC 222300Z 23004KT 200V260 9999 FEW010 SCT080 BKN/// 04/04 Q1004 RMK 1ST010 4AC080 A2966
RJCC 222230Z VRB05KT 9999 -SHRA FEW008 SCT040 BKN080 04/04 Q1004 RMK 1ST008 4CU040 7AC080 A2967
RJCC 222200Z 04004KT 9999 -SHRA FEW008 BKN040 04/04 Q1004 RMK 1ST008 7CU040 A2966
RJCC 222130Z 34007KT 9999 -SHRA FEW008 BKN040 05/05 Q1004 RMK 1ST008 7CU040 A2966
RJCC 222100Z 29004KT 260V340 9999 -SHRA FEW012 SCT020 BKN040 05/05 Q1004 RMK 1ST012 3CU020 6CU040 A2966
RJCC 222030Z 26006KT 9999 -SHRA FEW012 SCT020 BKN035 05/05 Q1004 RMK 1ST012 3CU020 6CU035 A2966
RJCC 222000Z 21008KT 9999 FEW012 SCT020 BKN060 05/05 Q1003 RMK 1ST012 3CU020 5CU060 A2964
RJCC 221930Z 18007KT 9999 R19R/2000N R19L/P2000N FEW015 BKN150 03/03 Q1003
RJCC 221900Z 18008KT 9999 -SHRA FEW015 SCT060 BKN120 05/05 Q1004 RMK 1ST015 3CU060 6AC120 A2965
RJCC 221830Z 18008KT 9999 -SHRA FEW015 SCT025 BKN070 05/05 Q1004 RMK 1ST015 3CU025 7AC070 A2965
RJCC 221800Z 19011KT 9999 -SHRA FEW015 SCT025 BKN070 05/05 Q1004 RMK 1ST015 3CU025 7AC070 A2967
RJCC 221730Z 19011KT 9999 -SHRA FEW010 SCT015 BKN025 06/05 Q1005 RMK 1ST010 3ST015 7CU025 A2968
RJCC 221700Z 19010KT 9999 -SHRA FEW007 SCT015 BKN020 06/05 Q1005 RMK 1ST007 4ST015 7CU020 A2969
RJCC 221630Z 21008KT 9999 -SHRA FEW007 BKN014 BKN020 06/05 Q1005 RMK 1ST007 5ST014 7CU020 A2970
RJCC 221600Z 17006KT 9999 -SHRA FEW008 BKN015 BKN025 05/05 Q1006 RMK 1ST008 5ST015 7CU025 A2971
RJCC 221530Z 17006KT 9999 -SHRA FEW010 SCT015 BKN025 05/05 Q1006 RMK 1ST010 4ST015 7CU025 A2971
RJCC 221500Z 21007KT 9999 -SHRA FEW010 BKN025 BKN035 06/05 Q1006 RMK 1ST010 5CU025 7CU035 A2972
RJCC 221430Z 19010KT 9999 -SHRA FEW008 SCT015 BKN035 06/06 Q1007 RMK 1ST008 3ST015 7CU035 A2975
RJCC 221400Z 20006KT 9999 -SHRA FEW008 SCT015 BKN035 07/06 Q1007 RMK 1ST008 3ST015 7CU035 A2976
RJCC 221330Z 17006KT 9999 -SHRA FEW010 SCT030 BKN040 05/05 Q1008 RMK 1ST010 4CU030 7CU040 A2977
RJCC 221300Z 20008KT 9999 -SHRA FEW008 SCT020 BKN030 07/06 Q1008 RMK 1ST008 3CU020 7CU030 A2978
RJCC 221230Z 18013KT 9999 -SHRA FEW007 SCT012 BKN030 07/06 Q1009 RMK 1ST007 3ST012 7CU030 A2980
RJCC 221200Z 19008KT 9999 -SHRA FEW007 SCT010 BKN025 07/06 Q1009 RMK 1ST007 4ST010 7CU025 A2982
RJCC 221130Z 19009KT 9999 -SHRA FEW010 BKN025 BKN035 06/06 Q1010 RMK 1ST010 5CU025 7CU035 A2982
RJCC 221100Z 14007KT 9999 -SHRA FEW008 SCT017 BKN025 06/06 Q1010 RMK 1ST008 3ST017 7CU025 A2984
RJCC 221030Z 12008KT 7000 -SHRA FEW008 SCT017 BKN025 05/05 Q1010 RMK 1ST008 4ST017 7CU025 A2984
RJCC 221000Z 15009KT 5000 SHRA BR FEW008 BKN012 BKN025 06/05 Q1011 RMK 1ST008 5ST012 7CU025 A2987
RJCC 220930Z 17015KT 5000 SHRA BR FEW010 BKN020 BKN030 06/05 Q1012 RMK 1ST010 5CU020 7CU030 A2988
RJCC 220919Z 15015KT 6000 SHRA FEW010 BKN020 BKN030 06/05 Q1012 RMK 1ST010 5CU020 7CU030 A2988
RJCC 220900Z 15017KT 8000 -SHRA FEW010 BKN025 BKN035 06/05 Q1011 RMK 1ST010 5CU025 7CU035 A2988
RJCC 220830Z 17017KT 6000 -SHRA FEW010 BKN025 BKN035 06/04 Q1011 RMK 1ST010 5CU025 7CU035 A2987
RJCC 220800Z 17016KT 5000 SHRA BR FEW010 BKN025 06/04 Q1012 RMK 2ST010 7CU025 A2990
RJCC 220735Z 17021G31KT 5000 -SHRA BR FEW010 BKN025 06/04 Q1012 RMK 2ST010 7CU025 A2990
RJCC 220700Z 15013KT 9999 -SHRA FEW010 BKN030 07/05 Q1012 RMK 1ST010 7CU030 A2990
RJCC 220630Z 15017KT 9999 -SHRA FEW010 BKN030 07/04 Q1012 RMK 1ST010 7CU030 A2991
RJCC 220617Z 15017G27KT 9999 -SHRA FEW010 BKN025 07/04 Q1013 RMK 1ST010 7CU025 A2991
RJCC 220600Z 15019KT 9999 -SHRA FEW010 BKN025 07/04 Q1013 RMK 1ST010 7CU025 A2992
RJCC 220530Z 15019KT 9999 -SHRA FEW010 BKN030 07/03 Q1013 RMK 1ST010 7CU030 A2992
RJCC 220507Z 15017G27KT 9999 -SHRA FEW010 BKN030 07/02 Q1013 RMK 1ST010 7CU030 A2993
RJCC 220500Z 15018KT 9999 -SHRA FEW010 BKN030 07/02 Q1013 RMK 1ST010 7CU030 A2993
RJCC 220430Z 16017KT 9999 -SHRA FEW010 BKN030 07/02 Q1013 RMK 1ST010 7CU030 A2994
RJCC 220400Z 16020KT 9999 -SHRA FEW010 BKN030 07/02 Q1014 RMK 1ST010 7CU030 A2996
RJCC 220330Z 16020KT 9999 -SHRA FEW010 BKN030 07/01 Q1014 RMK 1ST010 7CU030 A2997
RJCC 220300Z 16021KT 9999 -SHRA FEW010 BKN030 06/01 Q1015 RMK 1ST010 7CU030 A2998
RJCC 220232Z 16017G28KT 9999 -SHRA FEW010 BKN030 06/02 Q1015 RMK 1ST010 7CU030 A3000
RJCC 220230Z 16017KT 9999 -SHRA FEW010 BKN030 06/02 Q1015 RMK 1ST010 7CU030 A3000
RJCC 220200Z 14012KT 9999 FEW015 BKN030 BKN050 06/01 Q1016 RMK 1ST015 5CU030 7CU050 A3002
RJCC 220130Z 13015KT 9999 -SHRA FEW015 BKN030 04/00 Q1017 RMK 1ST015 7CU030 A3005
RJCC 220100Z 14014KT 9999 -SHRA FEW015 BKN030 04/M00 Q1018 RMK 1ST015 7CU030 A3007
RJCC 220030Z 14013KT 9999 -SHRA FEW015 BKN030 04/M01 Q1019 RMK 1ST015 7CU030 A3009
RJCC 220000Z 15009KT 9999 FEW015 BKN025 03/M02 Q1019 RMK 1ST015 7CU025 A3011
RJCC 212330Z 14006KT 9999 FEW020 BKN030 01/M03 Q1019 RMK 1CU020 7CU030 A3012
RJCC 212300Z 14008KT 9999 FEW020 SCT090 BKN/// M00/M04 Q1020
RJCC 212230Z 16009KT 9999 FEW020 BKN/// M02/M05 Q1020
RJCC 212200Z 17006KT 9999 FEW025 BKN/// M04/M06 Q1020
RJCC 212130Z 20004KT 9999 FEW025 SCT/// M06/M07 Q1021
RJCC 212100Z 17002KT 9999 FEW025 M06/M07 Q1021 RMK 1CU025 A3016
RJCC 212030Z 15004KT 9999 FEW025 M06/M07 Q1021 RMK 1CU025 A3017
RJCC 212000Z 20004KT 9999 FEW025 SCT060 M04/M07 Q1022 RMK 1CU025 3CU060 A3019
RJCC 211930Z 21003KT 9999 FEW025 BKN060 M05/M07 Q1022 RMK 1CU025 7CU060 A3020
RJCC 211900Z 21003KT 9999 FEW025 BKN050 M02/M06 Q1023 RMK 1CU025 7CU050 A3021
RJCC 211830Z 16004KT 120V180 9999 FEW025 BKN050 M02/M06 Q1023 RMK 1CU025 7CU050 A3021
RJCC 211800Z 17004KT 9999 FEW025 BKN050 M03/M06 Q1023 RMK 1CU025 7CU050 A3022
RJCC 211730Z 13003KT 9999 FEW025 BKN050 M03/M06 Q1023 RMK 1CU025 7CU050 A3023
RJCC 211700Z 14005KT 9999 FEW025 BKN050 M03/M07 Q1024 RMK 1CU025 7CU050 A3024
RJCC 211630Z 13003KT 040V180 9999 FEW025 BKN050 M03/M07 Q1024 RMK 1CU025 7CU050 A3024
RJCC 211600Z 12006KT 9999 FEW025 BKN050 M04/M07 Q1023 RMK 1CU025 6CU050 A3023
RJCC 211530Z VRB01KT 9999 FEW025 SCT040 M06/M07 Q1024 RMK 1CU025 3CU040 A3024